Tullahoma, Tennessee
Current Conditions -  °F | °C
As of 4:15 AM on Thursday 29 Jan 2015 (Local Time) from KTHA Reporting Station
Clear Clear  
Wind Chill: 37°   Ceiling: Unl
Heat Index: 43°   Visibility: 10mi
Dew Point: 25°   Wind: 12mph
Humidity: 49%   Direction: 160°SSE
Pressure: 30.12"   Gusts: NA
Location:  35.36°N, 86.21°W
Report Text: KTHA 291015Z AUTO 16010KT 10SM CLR 06/M04 A3012 RMK
Loading
Personal Weather Stations






























Interactive Weather Map New forecast layout! Learn more

10-Day Weather Forecast

Advertisements
Track Severe Weather on mobile